Time;durP1;ratioP1;P1;durP2;ratioP2;P2;SDS_P1;SDS_P2;PMS_P1;PMS_P2;Temp;Humidity;BMP_temperature;BMP_pressure;BME280_temperature;BME280_humidity;BME280_pressure;Samples;Min_cycle;Max_cycle;Signal;HPM_P1;HPM_P2
2022/08/29 04:31:36;;;;;;;4.05;2.30;;;14.10;99.90;;;;;;6217360;23;20031;-81
2022/08/29 04:34:04;;;;;;;8.15;2.92;;;15.00;99.90;;;;;;6217903;23;20017;-81
2022/08/29 04:36:32;;;;;;;8.55;3.00;;;15.10;99.90;;;;;;6214163;23;20021;-82
2022/08/29 04:38:58;;;;;;;9.85;3.03;;;15.10;99.90;;;;;;6217256;23;20012;-81
2022/08/29 04:41:24;;;;;;;7.03;2.83;;;15.10;99.90;;;;;;6217734;23;20023;-81
2022/08/29 04:43:49;;;;;;;7.88;2.83;;;15.10;99.90;;;;;;6215355;23;20447;-82
2022/08/29 04:46:16;;;;;;;5.45;2.70;;;15.10;99.90;;;;;;6215883;23;20073;-82
2022/08/29 04:48:42;;;;;;;9.73;2.92;;;15.10;99.90;;;;;;6215680;23;20078;-84
2022/08/29 04:51:08;;;;;;;8.75;3.42;;;15.10;99.90;;;;;;6214402;23;20027;-86
2022/08/29 04:53:34;;;;;;;9.32;2.72;;;15.10;99.90;;;;;;6190718;23;20013;-83
2022/08/29 04:56:06;;;;;;;6.63;2.60;;;15.10;99.90;;;;;;6217127;23;20028;-84
2022/08/29 04:58:34;;;;;;;6.75;2.60;;;15.20;99.90;;;;;;6214864;23;20066;-85
2022/08/29 05:01:00;;;;;;;7.30;3.03;;;15.10;99.90;;;;;;6190738;23;20013;-84
2022/08/29 05:03:26;;;;;;;6.53;3.10;;;15.10;99.90;;;;;;6217644;23;20027;-85
2022/08/29 05:06:05;;;;;;;6.53;2.80;;;15.20;99.90;;;;;;6216334;23;20348;-81
2022/08/29 05:08:32;;;;;;;5.80;2.70;;;15.20;99.90;;;;;;6216805;23;20518;-81
2022/08/29 05:10:58;;;;;;;5.70;2.88;;;15.10;99.90;;;;;;6216649;23;20336;-81
2022/08/29 05:13:24;;;;;;;7.10;3.05;;;15.10;99.90;;;;;;6217186;23;20028;-81
2022/08/29 05:15:49;;;;;;;6.25;2.60;;;15.10;99.90;;;;;;6215560;23;20024;-81
2022/08/29 05:18:19;;;;;;;6.65;2.53;;;15.10;99.90;;;;;;6216590;23;20027;-82
2022/08/29 05:20:47;;;;;;;8.77;2.75;;;15.00;99.90;;;;;;6216551;23;20466;-81
2022/08/29 05:23:15;;;;;;;8.98;2.90;;;15.00;99.90;;;;;;6216860;23;20017;-82
2022/08/29 05:25:42;;;;;;;9.13;2.83;;;15.00;99.90;;;;;;6214251;23;20117;-82
2022/08/29 05:28:10;;;;;;;4.32;2.42;;;15.00;99.90;;;;;;6216828;23;20043;-82
2022/08/29 05:30:40;;;;;;;7.03;2.78;;;15.00;99.90;;;;;;6214593;23;20083;-83
2022/08/29 05:33:06;;;;;;;6.13;2.38;;;15.00;99.90;;;;;;6189011;23;20338;-83
2022/08/29 05:35:33;;;;;;;6.28;2.60;;;15.00;99.90;;;;;;6216774;23;20368;-82
2022/08/29 05:38:00;;;;;;;7.28;3.00;;;15.10;99.90;;;;;;6215469;23;20087;-83
2022/08/29 05:40:27;;;;;;;7.18;2.42;;;15.10;99.90;;;;;;6213880;23;20448;-82
2022/08/29 05:42:53;;;;;;;6.57;2.58;;;15.10;99.90;;;;;;6216379;23;20325;-82
2022/08/29 05:45:19;;;;;;;5.07;2.85;;;15.20;99.90;;;;;;6216634;23;20044;-82
2022/08/29 05:47:44;;;;;;;8.52;3.25;;;15.20;99.90;;;;;;6216185;23;20063;-82
2022/08/29 05:50:10;;;;;;;4.78;2.60;;;15.20;99.90;;;;;;6188538;23;20444;-81
2022/08/29 05:52:36;;;;;;;6.13;2.50;;;15.20;99.90;;;;;;6214522;23;20445;-81
2022/08/29 05:55:03;;;;;;;8.43;2.58;;;15.30;99.90;;;;;;6211278;23;20110;-81
2022/08/29 05:57:29;;;;;;;10.20;3.00;;;15.30;99.90;;;;;;6188955;23;20019;-81
2022/08/29 05:59:55;;;;;;;6.38;2.75;;;15.30;99.90;;;;;;6215161;23;20021;-81
2022/08/29 06:02:24;;;;;;;8.75;3.25;;;15.40;99.90;;;;;;6212570;23;20021;-81
2022/08/29 06:04:51;;;;;;;14.57;3.50;;;15.40;99.90;;;;;;6214772;23;20016;-80
2022/08/29 06:07:18;;;;;;;14.13;3.22;;;15.50;99.90;;;;;;6213635;23;20021;-80
2022/08/29 06:09:44;;;;;;;15.68;3.20;;;15.50;99.90;;;;;;6212308;23;20055;-81
2022/08/29 06:12:15;;;;;;;7.10;2.58;;;15.60;99.90;;;;;;6216104;23;20344;-81
2022/08/29 06:14:41;;;;;;;8.80;3.35;;;15.60;99.90;;;;;;6188439;23;20012;-80
2022/08/29 06:17:10;;;;;;;6.78;2.58;;;15.70;99.90;;;;;;6216807;23;20025;-81
2022/08/29 06:19:38;;;;;;;7.50;2.67;;;15.80;99.90;;;;;;6214887;23;20016;-81
2022/08/29 06:22:12;;;;;;;11.55;3.00;;;15.80;99.90;;;;;;6215429;23;20028;-81
2022/08/29 06:24:41;;;;;;;12.57;3.08;;;15.90;99.90;;;;;;6216072;23;20021;-81
2022/08/29 06:27:10;;;;;;;9.02;3.22;;;16.00;99.90;;;;;;6215492;23;20055;-80
2022/08/29 06:29:39;;;;;;;7.15;2.42;;;16.10;99.90;;;;;;6187262;23;20028;-80
2022/08/29 06:32:15;;;;;;;7.68;2.58;;;16.20;99.90;;;;;;6214397;23;20379;-81
2022/08/29 06:34:52;;;;;;;10.90;2.40;;;16.20;99.90;;;;;;6214941;23;20023;-80
2022/08/29 06:37:23;;;;;;;8.38;2.58;;;16.30;99.90;;;;;;6213768;23;20144;-80
2022/08/29 06:39:49;;;;;;;11.45;2.55;;;16.40;99.90;;;;;;6216083;23;20048;-80
2022/08/29 06:42:23;;;;;;;6.32;2.25;;;16.40;99.90;;;;;;6216116;23;20016;-80
2022/08/29 06:45:00;;;;;;;;;;;;;;;;;;;;;
2022/08/29 06:47:34;;;;;;;7.80;2.17;;;16.50;99.90;;;;;;6216145;23;20024;-80
2022/08/29 06:50:02;;;;;;;8.97;2.30;;;16.50;99.90;;;;;;6214609;23;20016;-81
2022/08/29 06:52:28;;;;;;;11.23;3.58;;;16.50;99.90;;;;;;6214540;23;20051;-80
2022/08/29 06:54:54;;;;;;;49.78;3.42;;;16.60;99.90;;;;;;6212594;23;20012;-81
2022/08/29 06:57:23;;;;;;;23.45;2.55;;;16.60;99.90;;;;;;6212656;23;20024;-80
2022/08/29 06:59:52;;;;;;;14.77;2.83;;;16.60;99.90;;;;;;6215290;23;20013;-81
2022/08/29 07:02:21;;;;;;;9.98;2.53;;;16.70;99.90;;;;;;6214530;23;20067;-80
2022/08/29 07:04:50;;;;;;;11.55;2.83;;;16.70;99.90;;;;;;6186713;23;20013;-81
2022/08/29 07:07:25;;;;;;;9.95;2.60;;;16.80;99.90;;;;;;6187064;23;20016;-81
2022/08/29 07:09:54;;;;;;;7.95;1.85;;;16.80;99.90;;;;;;6215991;23;20064;-81
2022/08/29 07:12:20;;;;;;;10.15;2.33;;;16.90;99.90;;;;;;6187913;23;20104;-81
2022/08/29 07:14:52;;;;;;;10.85;2.60;;;17.00;99.90;;;;;;6215650;23;20017;-81
2022/08/29 07:17:24;;;;;;;10.45;2.25;;;17.00;99.90;;;;;;6213826;23;20063;-81
2022/08/29 07:19:58;;;;;;;6.93;2.25;;;17.10;99.90;;;;;;6213500;23;20025;-81
2022/08/29 07:22:34;;;;;;;;;;;17.20;99.90;;;;;;6214421;23;20088;-80
2022/08/29 07:25:01;;;;;;;9.30;2.63;;;17.30;99.90;;;;;;6214731;23;19931;-81
2022/08/29 07:27:27;;;;;;;11.88;2.45;;;17.30;99.90;;;;;;6214361;23;20055;-81
2022/08/29 07:29:55;;;;;;;7.10;2.22;;;17.40;99.90;;;;;;6215015;23;20044;-80
2022/08/29 07:32:44;;;;;;;8.07;2.15;;;17.50;99.90;;;;;;6214230;23;20012;-80
2022/08/29 07:35:15;;;;;;;13.75;2.28;;;17.70;99.90;;;;;;6189049;23;20024;-81
2022/08/29 07:37:44;;;;;;;6.57;1.77;;;17.80;99.90;;;;;;6188957;23;20054;-84
2022/08/29 07:40:36;;;;;;;7.40;1.58;;;18.00;99.90;;;;;;6211874;23;20017;-82
2022/08/29 07:43:05;;;;;;;8.95;2.25;;;18.10;99.90;;;;;;6215724;23;20013;-82
2022/08/29 07:45:37;;;;;;;9.50;2.40;;;18.10;99.90;;;;;;6215149;23;20094;-82
2022/08/29 07:48:04;;;;;;;6.93;2.30;;;18.20;99.90;;;;;;6215530;23;20336;-80
2022/08/29 07:50:36;;;;;;;8.95;2.00;;;18.20;99.90;;;;;;6213582;23;20021;-80
2022/08/29 07:53:02;;;;;;;5.90;1.73;;;18.20;99.90;;;;;;6214616;23;20088;-79
2022/08/29 07:55:30;;;;;;;9.05;2.90;;;18.20;99.90;;;;;;6213641;23;20463;-81
2022/08/29 07:58:14;;;;;;;9.55;2.67;;;18.20;99.90;;;;;;6215954;23;20013;-81
2022/08/29 08:00:45;;;;;;;9.23;2.45;;;18.20;99.90;;;;;;6211838;23;20108;-80
2022/08/29 08:03:13;;;;;;;7.25;2.53;;;18.20;99.90;;;;;;6215134;23;20017;-80
2022/08/29 08:05:49;;;;;;;12.75;2.45;;;18.20;99.90;;;;;;6216098;23;20341;-81
2022/08/29 08:08:24;;;;;;;7.53;2.47;;;18.20;99.90;;;;;;6212778;23;20013;-80
2022/08/29 08:10:50;;;;;;;11.63;2.30;;;18.20;99.90;;;;;;6212398;23;20025;-81
2022/08/29 08:13:27;;;;;;;11.38;3.00;;;18.20;99.90;;;;;;6214214;23;20494;-80
2022/08/29 08:16:02;;;;;;;9.80;2.78;;;18.30;99.90;;;;;;6214192;23;20052;-81
2022/08/29 08:18:28;;;;;;;8.35;2.42;;;18.40;99.90;;;;;;6214265;23;20032;-81
2022/08/29 08:21:22;;;;;;;8.15;3.03;;;18.40;99.90;;;;;;6187016;23;20387;-79
2022/08/29 08:24:02;;;;;;;10.05;2.33;;;18.50;99.90;;;;;;6213173;23;20017;-80
2022/08/29 08:26:28;;;;;;;9.25;2.75;;;18.60;99.90;;;;;;6213636;23;20016;-80
2022/08/29 08:29:12;;;;;;;;;;;;;;;;;;;;;
2022/08/29 08:31:46;;;;;;;12.55;2.40;;;18.70;99.90;;;;;;6215354;23;20024;-80
2022/08/29 08:34:14;;;;;;;7.57;1.90;;;18.70;99.90;;;;;;6213636;23;20012;-80
2022/08/29 08:36:46;;;;;;;6.40;2.10;;;18.70;99.90;;;;;;6214371;23;20025;-81
2022/08/29 08:39:13;;;;;;;7.65;1.77;;;18.80;99.90;;;;;;6188936;23;20117;-81
2022/08/29 08:42:21;;;;;;;11.80;2.13;;;18.90;99.90;;;;;;6215031;23;20048;-81
2022/08/29 08:45:11;;;;;;;6.85;1.73;;;19.00;99.90;;;;;;6229297;23;20024;-82
2022/08/29 08:47:59;;;;;;;6.13;1.92;;;19.10;99.90;;;;;;6215375;23;20027;-82
2022/08/29 08:50:47;;;;;;;8.95;2.13;;;19.10;99.90;;;;;;6187471;23;20016;-82
2022/08/29 08:53:27;;;;;;;10.48;2.78;;;19.10;99.90;;;;;;6212864;23;20507;-81
2022/08/29 08:56:14;;;;;;;9.90;2.10;;;19.20;99.90;;;;;;6215005;23;20016;-81
2022/08/29 08:59:01;;;;;;;4.72;2.00;;;19.30;99.90;;;;;;6213108;23;20055;-82
2022/08/29 09:01:42;;;;;;;7.07;1.98;;;19.30;99.90;;;;;;6214406;23;20092;-82
2022/08/29 09:04:35;;;;;;;7.43;2.28;;;19.30;99.90;;;;;;6212495;23;20071;-81
2022/08/29 09:07:29;;;;;;;9.13;1.85;;;19.30;99.90;;;;;;6215710;23;20020;-82
2022/08/29 09:10:10;;;;;;;8.10;2.30;;;19.40;99.90;;;;;;6214730;23;20051;-81
2022/08/29 09:12:57;;;;;;;10.70;2.85;;;19.50;99.90;;;;;;6214033;23;20411;-80
2022/08/29 09:15:37;;;;;;;12.18;2.92;;;19.50;99.90;;;;;;6215112;23;20050;-82
2022/08/29 09:18:29;;;;;;;6.45;2.10;;;19.50;99.90;;;;;;6212397;23;20036;-81
2022/08/29 09:20:56;;;;;;;7.72;2.20;;;19.50;99.90;;;;;;6213849;23;20016;-82
2022/08/29 09:23:58;;;;;;;4.90;1.75;;;19.50;99.90;;;;;;6214894;23;20456;-84
2022/08/29 09:26:33;;;;;;;7.78;2.10;;;19.50;99.90;;;;;;6206430;23;20067;-80
2022/08/29 09:29:02;;;;;;;8.50;2.40;;;19.40;99.90;;;;;;6214635;23;20432;-81
2022/08/29 09:31:36;;;;;;;7.95;1.90;;;19.50;99.90;;;;;;5301826;23;21310840;-82
2022/08/29 09:34:11;;;;;;;6.72;2.75;;;19.50;99.90;;;;;;6216192;23;20099;-81
2022/08/29 09:36:58;;;;;;;6.30;2.20;;;19.60;99.90;;;;;;6217218;23;20071;-82
2022/08/29 09:39:32;;;;;;;10.57;2.50;;;19.60;99.90;;;;;;6212844;23;20763;-81
2022/08/29 09:42:22;;;;;;;7.10;2.37;;;19.60;99.90;;;;;;6216778;23;20016;-81
2022/08/29 09:44:57;;;;;;;9.10;2.70;;;19.60;99.90;;;;;;6214615;23;20021;-81
2022/08/29 09:47:26;;;;;;;12.38;2.90;;;19.60;99.90;;;;;;6213573;23;20098;-81
2022/08/29 09:50:27;;;;;;;9.35;3.28;;;19.60;99.90;;;;;;6216447;23;20328;-80
2022/08/29 09:52:56;;;;;;;5.45;1.80;;;19.70;99.90;;;;;;6214046;23;20083;-80
2022/08/29 09:55:29;;;;;;;7.07;2.22;;;19.70;99.90;;;;;;6214154;23;20016;-80
2022/08/29 09:58:23;;;;;;;12.75;3.40;;;19.80;99.90;;;;;;6190499;23;20020;-81
2022/08/29 10:01:21;;;;;;;8.35;2.10;;;19.90;99.90;;;;;;6214942;23;20015;-82
2022/08/29 10:04:36;;;;;;;6.28;1.95;;;19.90;99.90;;;;;;6124763;23;20012;-81
2022/08/29 10:07:33;;;;;;;10.25;2.50;;;19.90;99.90;;;;;;6208505;23;20021;-81
2022/08/29 10:10:18;;;;;;;6.53;1.90;;;20.00;99.90;;;;;;6183164;23;20016;-80
2022/08/29 10:13:07;;;;;;;10.02;2.40;;;20.00;99.90;;;;;;6215848;23;20055;-80
2022/08/29 10:15:49;;;;;;;9.30;2.20;;;20.10;99.90;;;;;;6188883;23;20021;-82
2022/08/29 10:18:31;;;;;;;8.25;1.85;;;20.20;99.90;;;;;;6216205;23;20396;-81
2022/08/29 10:21:46;;;;;;;;;;;;;;;;;;;;;
2022/08/29 10:24:30;;;;;;;9.52;2.47;;;20.20;99.90;;;;;;6213460;23;20099;-81
2022/08/29 10:27:25;;;;;;;7.45;2.35;;;20.30;99.90;;;;;;6214789;23;20021;-81
2022/08/29 10:30:36;;;;;;;10.35;2.08;;;20.30;99.90;;;;;;6191139;23;20372;-81
2022/08/29 10:33:25;;;;;;;8.82;2.83;;;20.40;99.90;;;;;;6215137;23;20024;-81
2022/08/29 10:36:09;;;;;;;5.95;2.13;;;20.50;99.90;;;;;;6213918;23;20052;-82
2022/08/29 10:38:46;;;;;;;11.10;2.80;;;20.60;99.90;;;;;;6214912;23;20021;-81
2022/08/29 10:41:33;;;;;;;11.98;2.45;;;20.60;99.90;;;;;;6213417;23;20158;-79
2022/08/29 10:44:41;;;;;;;9.00;2.50;;;20.60;99.90;;;;;;6216621;23;20458;-81
2022/08/29 10:47:21;;;;;;;11.55;3.17;;;20.50;99.90;;;;;;6214287;23;20017;-81
2022/08/29 10:50:09;;;;;;;12.63;3.33;;;20.40;99.90;;;;;;6213243;23;20017;-81
2022/08/29 10:53:03;;;;;;;9.45;3.13;;;20.30;99.90;;;;;;6189003;23;20028;-80
2022/08/29 10:55:59;;;;;;;11.68;3.38;;;20.20;99.90;;;;;;6214698;23;20017;-82
2022/08/29 10:59:17;;;;;;;10.25;2.50;;;20.10;99.90;;;;;;6215935;23;20020;-81
2022/08/29 11:01:51;;;;;;;12.95;2.88;;;20.20;99.90;;;;;;6198507;23;20016;-81
2022/08/29 11:04:30;;;;;;;14.15;3.20;;;20.20;99.90;;;;;;6211621;23;20452;-83
2022/08/29 11:07:29;;;;;;;12.52;2.63;;;20.30;99.90;;;;;;6213515;23;20031;-81
2022/08/29 11:10:08;;;;;;;16.52;4.03;;;20.40;99.90;;;;;;6213603;23;20023;-81
2022/08/29 11:13:13;;;;;;;10.35;3.40;;;20.40;99.90;;;;;;6213473;23;20025;-80
2022/08/29 11:15:54;;;;;;;13.13;3.40;;;20.40;99.90;;;;;;6199515;23;20035;-81
2022/08/29 11:18:39;;;;;;;14.60;3.25;;;20.40;99.90;;;;;;6213842;23;20452;-80
2022/08/29 11:21:24;;;;;;;7.88;2.80;;;20.40;99.90;;;;;;6213909;23;20092;-81
2022/08/29 11:23:50;;;;;;;9.68;2.78;;;20.30;99.90;;;;;;6214951;23;20074;-82
2022/08/29 11:26:42;;;;;;;9.02;3.10;;;20.40;99.90;;;;;;6213723;23;20372;-82
2022/08/29 11:29:49;;;;;;;13.13;3.75;;;20.50;99.90;;;;;;6214349;23;20132;-83
2022/08/29 11:32:57;;;;;;;7.00;2.75;;;20.50;99.90;;;;;;6198759;23;20100;-83
2022/08/29 11:35:23;;;;;;;12.30;3.33;;;20.60;99.90;;;;;;6214257;23;20013;-82
2022/08/29 11:38:40;;;;;;;10.00;3.30;;;20.50;99.90;;;;;;6212166;23;20067;-81
2022/08/29 11:41:25;;;;;;;14.90;3.28;;;20.50;99.90;;;;;;6136320;23;20016;-81
2022/08/29 11:44:23;;;;;;;10.38;3.40;;;20.60;99.90;;;;;;6187591;23;20025;-80
2022/08/29 11:47:00;;;;;;;6.80;2.50;;;20.70;99.90;;;;;;6212196;23;20025;-84
2022/08/29 11:49:38;;;;;;;12.00;3.67;;;20.80;99.90;;;;;;6212701;23;20446;-79
2022/08/29 11:52:25;;;;;;;14.93;3.22;;;20.70;99.90;;;;;;6212844;23;20031;-80
2022/08/29 11:55:21;;;;;;;15.23;3.20;;;20.70;99.90;;;;;;6214964;23;20429;-80
2022/08/29 11:57:53;;;;;;;11.18;3.47;;;20.70;99.90;;;;;;6215099;23;20336;-80
2022/08/29 12:00:26;;;;;;;9.40;2.70;;;20.70;99.90;;;;;;6215087;23;20020;-82
2022/08/29 12:02:54;;;;;;;12.77;4.80;;;20.60;99.90;;;;;;6216794;23;20020;-82
2022/08/29 12:05:55;;;;;;;11.73;2.63;;;20.60;99.90;;;;;;6216222;23;20017;-81
2022/08/29 12:08:52;;;;;;;10.50;3.22;;;20.60;99.90;;;;;;6217395;23;20096;-80
2022/08/29 12:11:39;;;;;;;11.77;2.78;;;20.60;99.90;;;;;;6217897;23;20024;-81
2022/08/29 12:14:26;;;;;;;15.82;3.40;;;20.60;99.90;;;;;;6212891;23;20016;-81
2022/08/29 12:16:57;;;;;;;9.75;3.10;;;20.50;99.90;;;;;;6216938;23;20023;-81
2022/08/29 12:19:52;;;;;;;5.80;2.05;;;20.50;99.90;;;;;;6216143;23;20052;-84
2022/08/29 12:22:53;;;;;;;8.82;2.55;;;20.50;99.90;;;;;;6215877;23;20013;-82
2022/08/29 12:25:43;;;;;;;12.05;2.90;;;20.50;99.90;;;;;;6216447;23;20387;-82
2022/08/29 12:31:13;;;;;;;9.68;3.10;;;20.50;99.90;;;;;;6205063;23;20025;-82
2022/08/29 12:34:13;;;;;;;12.50;2.88;;;20.40;99.90;;;;;;6215992;23;20023;-81
2022/08/29 12:37:13;;;;;;;12.30;3.00;;;20.50;99.90;;;;;;6217372;23;20042;-81
2022/08/29 12:40:03;;;;;;;9.00;2.25;;;20.50;99.90;;;;;;6216805;23;20017;-84
2022/08/29 12:42:50;;;;;;;5.95;2.15;;;20.50;99.90;;;;;;6189138;23;20017;-81
2022/08/29 12:45:31;;;;;;;12.25;3.10;;;20.50;99.90;;;;;;6215526;23;20017;-80
2022/08/29 12:48:11;;;;;;;9.55;3.05;;;20.50;99.90;;;;;;6214615;23;20444;-80
2022/08/29 12:50:46;;;;;;;9.82;2.83;;;20.40;99.90;;;;;;6190564;23;20024;-82
2022/08/29 12:53:31;;;;;;;10.35;3.00;;;20.40;99.90;;;;;;6216692;23;20079;-81
2022/08/29 12:56:11;;;;;;;8.65;3.35;;;20.40;99.90;;;;;;6214696;23;20016;-81
2022/08/29 12:58:53;;;;;;;10.43;3.28;;;20.50;99.90;;;;;;6212822;23;20024;-81
2022/08/29 13:01:39;;;;;;;11.30;3.15;;;20.50;99.90;;;;;;6215514;23;20094;-80
2022/08/29 13:04:24;;;;;;;10.25;2.65;;;20.60;99.90;;;;;;6188560;23;20027;-81
2022/08/29 13:07:05;;;;;;;16.00;2.80;;;20.60;99.90;;;;;;6215499;23;20024;-80
2022/08/29 13:09:51;;;;;;;17.98;3.10;;;20.60;99.90;;;;;;6215543;23;20099;-80
2022/08/29 13:12:34;;;;;;;11.20;3.38;;;20.70;99.90;;;;;;6215263;23;20025;-81
2022/08/29 13:15:06;;;;;;;7.22;2.28;;;20.80;99.90;;;;;;6215077;23;20026;-82
2022/08/29 13:17:41;;;;;;;4.47;2.60;;;20.90;99.90;;;;;;6189327;23;20091;-87
2022/08/29 13:20:42;;;;;;;11.85;3.08;;;20.90;99.90;;;;;;6214986;23;20016;-81
2022/08/29 13:23:30;;;;;;;16.45;3.40;;;20.90;99.90;;;;;;6213889;23;20405;-83
2022/08/29 13:26:17;;;;;;;16.42;3.40;;;20.90;99.90;;;;;;6214858;23;20020;-81
2022/08/29 13:28:52;;;;;;;9.80;2.42;;;20.80;99.90;;;;;;6216698;23;20023;-81
2022/08/29 13:31:38;;;;;;;15.00;3.15;;;20.80;99.90;;;;;;6214101;23;20029;-80
2022/08/29 13:34:19;;;;;;;14.63;2.60;;;20.80;99.90;;;;;;6216073;23;20016;-81
2022/08/29 13:36:59;;;;;;;11.88;3.25;;;20.70;99.90;;;;;;6217086;23;20103;-81
2022/08/29 13:39:38;;;;;;;10.60;2.70;;;20.70;99.90;;;;;;6215271;23;20116;-82
2022/08/29 13:42:21;;;;;;;10.65;2.97;;;20.60;99.90;;;;;;6215263;23;20444;-81
2022/08/29 13:45:08;;;;;;;12.88;2.30;;;20.60;99.90;;;;;;6215209;23;20020;-81
2022/08/29 13:47:47;;;;;;;9.70;2.30;;;20.60;99.90;;;;;;6214178;23;20472;-82
2022/08/29 13:50:20;;;;;;;11.10;2.30;;;20.60;99.90;;;;;;6188661;23;20016;-81
2022/08/29 13:52:49;;;;;;;6.18;2.30;;;20.70;99.90;;;;;;6214275;23;20078;-81
2022/08/29 13:55:16;;;;;;;7.38;2.45;;;20.70;99.90;;;;;;6188381;23;20015;-82
2022/08/29 13:57:51;;;;;;;6.57;2.00;;;20.70;99.90;;;;;;6216364;23;20020;-82
2022/08/29 14:00:27;;;;;;;7.63;2.47;;;20.80;99.90;;;;;;6214085;23;20344;-82
2022/08/29 14:03:05;;;;;;;9.30;2.63;;;20.80;99.90;;;;;;6216136;23;20024;-82
2022/08/29 14:05:43;;;;;;;10.48;2.63;;;20.80;99.90;;;;;;6215546;23;20016;-82
2022/08/29 14:08:12;;;;;;;9.43;3.10;;;20.90;99.90;;;;;;6216276;23;20384;-82
2022/08/29 14:10:43;;;;;;;5.85;2.42;;;20.90;99.90;;;;;;6216185;23;20020;-82
2022/08/29 14:13:18;;;;;;;6.97;2.03;;;20.90;99.90;;;;;;6215809;23;20017;-83
2022/08/29 14:15:55;;;;;;;6.82;2.20;;;20.90;99.90;;;;;;6214928;23;20340;-82
2022/08/29 14:18:24;;;;;;;8.57;2.22;;;20.80;99.90;;;;;;6214726;23;20020;-81
2022/08/29 14:20:50;;;;;;;6.00;2.08;;;20.80;99.90;;;;;;6213695;23;20074;-83
2022/08/29 14:23:29;;;;;;;9.48;2.63;;;20.80;99.90;;;;;;6214576;23;20337;-81
2022/08/29 14:25:57;;;;;;;12.65;2.67;;;20.80;99.90;;;;;;6215430;23;20017;-83
2022/08/29 14:28:28;;;;;;;10.90;2.10;;;20.80;99.90;;;;;;6215210;23;20016;-82
2022/08/29 14:31:01;;;;;;;10.38;2.58;;;20.70;99.90;;;;;;6213366;23;20119;-81
2022/08/29 14:33:32;;;;;;;5.22;1.63;;;20.60;99.90;;;;;;6215932;23;20440;-82
2022/08/29 14:36:01;;;;;;;7.60;2.13;;;20.60;99.90;;;;;;6213774;23;20021;-85
2022/08/29 14:38:35;;;;;;;9.05;2.38;;;20.60;99.90;;;;;;6214741;23;20067;-82
2022/08/29 14:41:04;;;;;;;11.27;2.83;;;20.60;99.90;;;;;;6214653;23;20075;-83
2022/08/29 14:43:36;;;;;;;8.98;2.38;;;20.50;99.90;;;;;;6215990;23;20016;-81
2022/08/29 14:46:11;;;;;;;8.70;1.98;;;20.50;99.90;;;;;;6215446;23;20021;-82
2022/08/29 14:48:39;;;;;;;6.78;1.98;;;20.50;99.90;;;;;;6213470;23;20013;-80
2022/08/29 14:51:38;;;;;;;8.23;1.90;;;20.40;99.90;;;;;;6215406;23;20433;-82
2022/08/29 14:54:17;;;;;;;8.95;2.40;;;20.40;99.90;;;;;;6215432;23;20017;-83
2022/08/29 14:56:51;;;;;;;7.40;1.90;;;20.40;99.90;;;;;;6213548;23;20340;-82
2022/08/29 14:59:26;;;;;;;10.07;2.20;;;20.30;99.90;;;;;;6215557;23;20067;-80
2022/08/29 15:01:58;;;;;;;11.07;2.58;;;20.30;99.90;;;;;;6212858;23;20054;-82
2022/08/29 15:04:29;;;;;;;5.70;1.65;;;20.30;99.90;;;;;;6214347;23;20048;-85
2022/08/29 15:06:56;;;;;;;11.10;2.17;;;20.30;99.90;;;;;;6213233;23;20091;-82
2022/08/29 15:09:22;;;;;;;10.25;2.15;;;20.30;99.90;;;;;;6213628;23;20078;-82
2022/08/29 15:11:47;;;;;;;5.85;1.90;;;20.30;99.90;;;;;;6213516;23;20032;-82
2022/08/29 15:14:13;;;;;;;8.52;2.08;;;20.30;99.90;;;;;;6216345;23;20087;-84
2022/08/29 15:16:39;;;;;;;11.95;2.50;;;20.20;99.90;;;;;;6214904;23;20492;-84
2022/08/29 15:19:05;;;;;;;15.10;2.55;;;20.20;99.90;;;;;;6212365;23;20433;-83
2022/08/29 15:21:34;;;;;;;9.93;1.50;;;20.20;99.90;;;;;;6215932;23;20095;-85
2022/08/29 15:23:59;;;;;;;7.03;1.83;;;20.20;99.90;;;;;;6213429;23;20052;-82
2022/08/29 15:26:25;;;;;;;7.65;2.20;;;20.20;99.90;;;;;;6189351;23;20413;-86
2022/08/29 15:28:53;;;;;;;8.05;2.00;;;20.30;99.90;;;;;;6189304;23;20017;-86
2022/08/29 15:31:19;;;;;;;6.60;1.73;;;20.30;99.90;;;;;;6215042;23;20517;-83
2022/08/29 15:33:45;;;;;;;8.80;2.05;;;20.30;99.90;;;;;;6214517;23;20056;-81
2022/08/29 15:36:11;;;;;;;11.93;3.00;;;20.30;99.90;;;;;;6217126;23;20020;-83
2022/08/29 15:38:37;;;;;;;6.38;2.40;;;20.30;99.90;;;;;;6216758;23;20489;-81
2022/08/29 15:41:02;;;;;;;10.95;2.13;;;20.30;99.90;;;;;;6219568;23;20467;-81
2022/08/29 15:43:28;;;;;;;10.85;2.63;;;20.30;99.90;;;;;;6217655;23;20095;-84
2022/08/29 15:45:54;;;;;;;12.43;2.28;;;20.40;99.90;;;;;;6216892;23;20440;-83
2022/08/29 15:48:20;;;;;;;6.85;2.42;;;20.40;99.90;;;;;;6217670;23;20048;-84
2022/08/29 15:50:49;;;;;;;6.43;2.25;;;20.40;99.90;;;;;;6219399;23;20016;-81
2022/08/29 15:53:15;;;;;;;11.20;3.17;;;20.40;99.90;;;;;;6218779;23;20016;-81
2022/08/29 15:55:41;;;;;;;10.02;1.90;;;20.40;99.90;;;;;;6219170;23;20020;-85
2022/08/29 15:58:06;;;;;;;5.63;1.80;;;20.30;99.90;;;;;;6191637;23;20079;-84
2022/08/29 16:00:32;;;;;;;7.82;2.00;;;20.30;99.90;;;;;;6217645;23;20020;-83
2022/08/29 16:03:03;;;;;;;11.57;1.98;;;20.30;99.90;;;;;;6217587;23;20389;-84
2022/08/29 16:05:29;;;;;;;10.70;2.03;;;20.20;99.90;;;;;;6191754;23;20507;-81
2022/08/29 16:07:55;;;;;;;8.05;1.80;;;20.20;99.90;;;;;;6217674;23;20017;-84
2022/08/29 16:10:21;;;;;;;5.07;1.92;;;20.20;99.90;;;;;;6192416;23;20024;-85
2022/08/29 16:12:47;;;;;;;17.85;2.38;;;20.20;99.90;;;;;;6218083;23;20017;-82
2022/08/29 16:15:12;;;;;;;8.48;1.80;;;20.20;99.90;;;;;;6219457;23;20016;-82
2022/08/29 16:17:38;;;;;;;9.07;2.40;;;20.20;99.90;;;;;;6219025;23;20012;-82
2022/08/29 16:20:09;;;;;;;6.97;2.15;;;20.20;99.90;;;;;;6218108;23;20088;-81
2022/08/29 16:22:35;;;;;;;10.35;1.52;;;20.20;99.90;;;;;;6192669;23;20051;-85
2022/08/29 16:25:01;;;;;;;6.20;2.00;;;20.20;99.90;;;;;;6217600;23;20013;-86
2022/08/29 16:27:27;;;;;;;6.50;1.90;;;20.10;99.90;;;;;;6191457;23;20016;-85
2022/08/29 16:29:54;;;;;;;8.48;2.10;;;20.10;99.90;;;;;;6219439;23;20019;-83
2022/08/29 16:32:20;;;;;;;6.55;2.03;;;20.00;99.90;;;;;;6218776;23;20411;-86
2022/08/29 16:34:46;;;;;;;9.68;2.20;;;20.00;99.90;;;;;;6216579;23;20020;-81
2022/08/29 16:37:11;;;;;;;3.75;1.63;;;20.00;99.90;;;;;;6217721;23;20020;-85
2022/08/29 16:39:37;;;;;;;8.02;1.83;;;19.90;99.90;;;;;;6217466;23;20023;-81
2022/08/29 16:42:03;;;;;;;7.03;1.50;;;19.90;99.90;;;;;;6217897;23;20496;-81
2022/08/29 16:44:30;;;;;;;8.80;1.98;;;19.90;99.90;;;;;;6219352;23;20019;-81
2022/08/29 16:46:56;;;;;;;8.27;1.90;;;19.90;99.90;;;;;;6218488;23;20024;-82
2022/08/29 16:49:23;;;;;;;8.77;2.20;;;19.80;99.90;;;;;;6214535;23;20024;-82
2022/08/29 16:51:49;;;;;;;5.22;1.70;;;19.90;99.90;;;;;;6217663;23;20020;-82
2022/08/29 16:54:15;;;;;;;7.82;1.80;;;19.90;99.90;;;;;;6216261;23;20329;-82
2022/08/29 16:56:41;;;;;;;5.68;1.77;;;19.90;99.90;;;;;;6217176;23;20021;-84
2022/08/29 16:59:07;;;;;;;8.60;2.33;;;19.90;99.90;;;;;;6215769;23;20452;-81
2022/08/29 17:01:45;;;;;;;5.03;1.90;;;19.80;99.90;;;;;;6214802;23;20374;-83
2022/08/29 17:04:14;;;;;;;7.57;1.85;;;19.80;99.90;;;;;;6217016;23;20053;-83
2022/08/29 17:06:41;;;;;;;9.80;2.40;;;19.70;99.90;;;;;;6215758;23;20060;-82
2022/08/29 17:16:26;;;;;;;8.07;2.03;;;19.60;99.90;;;;;;6216103;23;20065;-82
2022/08/29 17:18:52;;;;;;;6.95;1.50;;;19.50;99.90;;;;;;6217464;23;20110;-82
2022/08/29 17:21:17;;;;;;;8.90;2.28;;;19.50;99.90;;;;;;6217140;23;20441;-83
2022/08/29 17:23:43;;;;;;;7.50;1.63;;;19.50;99.90;;;;;;6214557;23;20051;-82
2022/08/29 17:26:11;;;;;;;7.30;1.70;;;19.50;99.90;;;;;;6190441;23;20031;-85
2022/08/29 17:28:38;;;;;;;5.28;1.70;;;19.40;99.90;;;;;;6217008;23;20012;-82
2022/08/29 17:31:05;;;;;;;4.72;1.80;;;19.40;99.90;;;;;;6214507;23;20055;-80
2022/08/29 17:33:31;;;;;;;7.70;1.70;;;19.40;99.90;;;;;;6216887;23;20017;-84
2022/08/29 17:35:57;;;;;;;7.05;2.15;;;19.40;99.90;;;;;;6216906;23;20024;-82
2022/08/29 17:38:23;;;;;;;4.15;1.50;;;19.40;99.90;;;;;;6216420;23;20095;-82
2022/08/29 17:40:51;;;;;;;4.18;1.50;;;19.40;99.90;;;;;;6215456;23;20029;-84
2022/08/29 17:43:17;;;;;;;4.03;1.40;;;19.40;99.90;;;;;;6215412;23;20079;-83
2022/08/29 17:45:45;;;;;;;3.75;1.30;;;19.40;99.90;;;;;;6214395;23;20025;-83
2022/08/29 17:48:11;;;;;;;4.90;1.50;;;19.30;99.90;;;;;;6217144;23;20024;-83
2022/08/29 17:50:36;;;;;;;7.15;2.00;;;19.30;99.90;;;;;;6215662;23;20020;-82
2022/08/29 17:53:02;;;;;;;4.68;1.40;;;19.30;99.90;;;;;;6190219;23;20067;-82
2022/08/29 17:55:28;;;;;;;6.75;2.00;;;19.20;99.90;;;;;;6217132;23;20441;-82
2022/08/29 17:57:54;;;;;;;4.25;1.50;;;19.20;99.90;;;;;;6214395;23;20044;-82
2022/08/29 18:00:20;;;;;;;6.53;1.60;;;19.10;99.90;;;;;;6215076;23;20052;-81
2022/08/29 18:02:46;;;;;;;7.03;1.73;;;19.10;99.90;;;;;;6215628;23;20099;-82
2022/08/29 18:05:12;;;;;;;5.85;1.55;;;19.00;99.90;;;;;;6215772;23;20055;-83
2022/08/29 18:07:41;;;;;;;5.72;1.90;;;18.90;99.90;;;;;;6215061;23;20021;-82
2022/08/29 18:10:10;;;;;;;4.90;1.50;;;18.90;99.90;;;;;;6216962;23;20016;-84